createdAt,value
2017-12-22T00:00:45.275Z,14.50
2017-12-22T00:01:45.267Z,14.33
2017-12-22T00:02:45.268Z,14.50
2017-12-22T00:03:45.247Z,14.61
2017-12-22T00:04:45.249Z,14.96
2017-12-22T00:05:45.246Z,14.59
2017-12-22T00:06:45.243Z,14.88
2017-12-22T00:07:45.233Z,15.16
2017-12-22T00:08:45.227Z,14.51
2017-12-22T00:09:45.221Z,14.87
2017-12-22T00:10:45.230Z,15.11
2017-12-22T00:11:45.199Z,14.27
2017-12-22T00:12:45.201Z,14.51
2017-12-22T00:13:45.209Z,14.60
2017-12-22T00:14:45.187Z,14.89
2017-12-22T00:15:45.184Z,14.60
2017-12-22T00:16:45.176Z,14.30
2017-12-22T00:17:45.172Z,14.47
2017-12-22T00:18:45.166Z,15.10
2017-12-22T00:19:45.157Z,14.14
2017-12-22T00:20:45.164Z,15.15
2017-12-22T00:21:45.150Z,14.74
2017-12-22T00:22:45.144Z,14.81
2017-12-22T00:23:45.141Z,15.55
2017-12-22T00:24:45.132Z,15.37
2017-12-22T00:25:45.132Z,15.40
2017-12-22T00:26:45.125Z,15.34
2017-12-22T00:27:45.106Z,15.25
2017-12-22T00:28:45.109Z,15.70
2017-12-22T00:29:45.106Z,15.92
2017-12-22T00:30:45.098Z,16.02
2017-12-22T00:31:45.094Z,16.02
2017-12-22T00:32:45.089Z,15.64
2017-12-22T00:33:45.087Z,15.22
2017-12-22T00:34:45.087Z,15.10
2017-12-22T00:35:45.078Z,15.76
2017-12-22T00:36:45.059Z,14.89
2017-12-22T00:37:45.057Z,14.82
2017-12-22T00:38:45.052Z,15.36
2017-12-22T00:39:45.043Z,15.72
2017-12-22T00:40:45.037Z,15.82
2017-12-22T00:40:57.040Z,0.64
2017-12-22T00:42:45.028Z,15.06
2017-12-22T00:43:45.023Z,15.23
2017-12-22T00:44:45.018Z,15.24
2017-12-22T00:45:45.009Z,14.98
2017-12-22T00:46:45.006Z,15.04
2017-12-22T00:47:44.999Z,16.07
2017-12-22T00:48:44.997Z,15.94
2017-12-22T00:49:44.991Z,16.38
2017-12-22T00:50:44.994Z,16.44
2017-12-22T00:51:44.983Z,16.81
2017-12-22T00:52:44.981Z,16.34
2017-12-22T00:53:44.960Z,16.74
2017-12-22T00:54:44.964Z,16.10
2017-12-22T00:55:44.952Z,15.60
2017-12-22T00:56:44.944Z,15.17
2017-12-22T00:57:44.933Z,15.13
2017-12-22T00:58:44.936Z,15.66
2017-12-22T00:59:44.927Z,15.23
2017-12-22T01:00:44.923Z,15.70
2017-12-22T01:01:44.917Z,15.82
2017-12-22T01:02:44.903Z,16.47
2017-12-22T01:03:44.921Z,16.89
2017-12-22T01:04:44.901Z,16.64
2017-12-22T01:05:44.901Z,16.96
2017-12-22T01:06:44.924Z,16.09
2017-12-22T01:07:44.893Z,15.87
2017-12-22T01:08:44.866Z,16.72
2017-12-22T01:09:44.868Z,16.36
2017-12-22T01:10:44.864Z,17.37
2017-12-22T01:11:44.856Z,16.10
2017-12-22T01:12:44.855Z,16.37
2017-12-22T01:13:44.846Z,15.94
2017-12-22T01:14:44.868Z,17.23
2017-12-22T01:15:44.849Z,16.14
2017-12-22T01:16:44.847Z,16.92
2017-12-22T01:17:44.828Z,16.94
2017-12-22T01:18:44.822Z,16.04
2017-12-22T01:19:44.812Z,16.44
2017-12-22T01:20:44.810Z,16.18
2017-12-22T01:21:44.802Z,16.19
2017-12-22T01:22:44.802Z,16.23
2017-12-22T01:23:44.796Z,16.22
2017-12-22T01:24:44.785Z,15.94
2017-12-22T01:25:44.775Z,15.33
2017-12-22T01:26:44.794Z,15.20
2017-12-22T01:27:44.771Z,15.98
2017-12-22T01:28:44.752Z,16.31
2017-12-22T01:29:44.760Z,16.12
2017-12-22T01:30:44.746Z,16.40
2017-12-22T01:31:44.742Z,16.51
2017-12-22T01:32:44.752Z,16.04
2017-12-22T01:33:44.737Z,16.24
2017-12-22T01:34:44.728Z,16.00
2017-12-22T01:35:44.725Z,16.09
2017-12-22T01:36:44.719Z,15.11
2017-12-22T01:37:44.712Z,14.94
2017-12-22T01:38:44.708Z,14.78
2017-12-22T01:39:44.701Z,15.84
2017-12-22T01:40:44.692Z,15.78
2017-12-22T01:41:44.686Z,14.84
2017-12-22T01:42:44.682Z,14.60
2017-12-22T01:43:44.678Z,14.36
2017-12-22T01:44:44.668Z,14.48
2017-12-22T01:45:44.662Z,14.13
2017-12-22T01:46:44.660Z,13.97
2017-12-22T01:47:44.656Z,14.50
2017-12-22T01:48:44.655Z,14.70
2017-12-22T01:49:44.652Z,14.76
2017-12-22T01:50:44.632Z,14.60
2017-12-22T01:51:44.632Z,14.14
2017-12-22T01:52:44.623Z,14.25
2017-12-22T01:53:44.610Z,14.50
2017-12-22T01:54:44.619Z,13.99
2017-12-22T01:55:44.608Z,14.50
2017-12-22T01:56:44.599Z,14.66
2017-12-22T01:57:44.593Z,14.18
2017-12-22T01:58:44.585Z,14.00
2017-12-22T01:59:44.586Z,14.98
2017-12-22T02:00:44.580Z,14.83
2017-12-22T02:01:44.570Z,14.28
2017-12-22T02:02:45.486Z,14.25
2017-12-22T02:03:44.569Z,15.02
2017-12-22T02:04:44.556Z,14.34
2017-12-22T02:05:44.550Z,14.50
2017-12-22T02:06:44.560Z,14.30
2017-12-22T02:07:44.539Z,15.23
2017-12-22T02:08:44.533Z,14.80
2017-12-22T02:09:44.527Z,15.41
2017-12-22T02:10:44.531Z,14.95
2017-12-22T02:11:45.493Z,14.22
2017-12-22T02:12:44.524Z,14.76
2017-12-22T02:13:44.497Z,13.88
2017-12-22T02:14:44.492Z,14.94
2017-12-22T02:15:44.489Z,15.28
2017-12-22T02:16:44.511Z,15.69
2017-12-22T02:17:44.478Z,15.68
2017-12-22T02:18:44.474Z,15.05
2017-12-22T02:19:44.467Z,15.10
2017-12-22T02:20:44.459Z,15.26
2017-12-22T02:21:44.459Z,14.94
2017-12-22T02:22:44.444Z,15.00
2017-12-22T02:23:44.451Z,14.74
2017-12-22T02:24:44.438Z,15.27
2017-12-22T02:25:44.433Z,15.60
2017-12-22T02:26:44.428Z,15.30
2017-12-22T02:27:44.421Z,14.99
2017-12-22T02:28:44.409Z,15.04
2017-12-22T02:29:44.411Z,15.64
2017-12-22T02:30:44.401Z,15.23
2017-12-22T02:31:44.401Z,14.92
2017-12-22T02:32:44.394Z,15.04
2017-12-22T02:33:44.390Z,15.90
2017-12-22T02:34:44.385Z,16.04
2017-12-22T02:35:44.399Z,15.40
2017-12-22T02:36:44.371Z,15.69
2017-12-22T02:37:44.362Z,15.45
2017-12-22T02:38:44.357Z,15.88
2017-12-22T02:39:44.352Z,16.21
2017-12-22T02:40:44.349Z,16.97
2017-12-22T02:41:44.339Z,16.97
2017-12-22T02:42:44.333Z,15.58
2017-12-22T02:43:44.332Z,16.39
2017-12-22T02:44:44.337Z,15.90
2017-12-22T02:45:44.316Z,16.34
2017-12-22T02:46:44.323Z,15.59
2017-12-22T02:47:44.308Z,16.26
2017-12-22T02:48:44.305Z,16.44
2017-12-22T02:49:44.302Z,16.89
2017-12-22T02:50:44.298Z,16.29
2017-12-22T02:51:44.284Z,17.22
2017-12-22T02:52:44.278Z,17.74
2017-12-22T02:53:44.268Z,16.91
2017-12-22T02:54:45.010Z,16.53
2017-12-22T02:55:44.260Z,15.94
2017-12-22T02:56:44.258Z,15.90
2017-12-22T02:57:44.251Z,16.11
2017-12-22T02:58:44.244Z,16.85
2017-12-22T02:59:44.235Z,16.88
2017-12-22T03:00:44.239Z,17.54
2017-12-22T03:01:44.229Z,17.64
2017-12-22T03:02:44.224Z,17.39
2017-12-22T03:03:44.219Z,17.17
2017-12-22T03:04:44.214Z,18.66
2017-12-22T03:05:44.207Z,17.70
2017-12-22T03:06:44.202Z,17.17
2017-12-22T03:07:44.193Z,16.76
2017-12-22T03:08:44.181Z,16.53
2017-12-22T03:09:44.182Z,16.99
2017-12-22T03:10:44.173Z,16.06
2017-12-22T03:11:44.166Z,16.38
2017-12-22T03:12:44.165Z,15.69
2017-12-22T03:13:44.158Z,15.95
2017-12-22T03:14:44.180Z,16.58
2017-12-22T03:15:44.143Z,19.64
2017-12-22T03:16:44.139Z,18.80
2017-12-22T03:17:44.138Z,20.47
2017-12-22T03:18:44.129Z,19.38
2017-12-22T03:19:44.120Z,18.84
2017-12-22T03:20:44.128Z,17.95
2017-12-22T03:21:44.114Z,17.19
2017-12-22T03:22:44.109Z,17.21
2017-12-22T03:23:44.111Z,16.92
2017-12-22T03:24:44.094Z,17.42
2017-12-22T03:25:44.099Z,17.94
2017-12-22T03:26:44.082Z,17.21
2017-12-22T03:27:44.074Z,16.08
2017-12-22T03:28:44.070Z,15.86
2017-12-22T03:29:44.068Z,16.92
2017-12-22T03:30:44.063Z,16.35
2017-12-22T03:31:44.053Z,15.72
2017-12-22T03:32:44.051Z,16.46
2017-12-22T03:33:44.047Z,16.12
2017-12-22T03:34:44.041Z,16.22
2017-12-22T03:35:44.033Z,15.92
2017-12-22T03:36:44.014Z,15.29
2017-12-22T03:37:44.015Z,15.50
2017-12-22T03:38:44.527Z,15.37
2017-12-22T03:39:44.005Z,15.92
2017-12-22T03:40:44.002Z,16.73
2017-12-22T03:41:44.002Z,16.84
2017-12-22T03:42:43.992Z,16.05
2017-12-22T03:43:43.986Z,15.60
2017-12-22T03:44:43.981Z,15.04
2017-12-22T03:45:43.982Z,15.26
2017-12-22T03:46:43.972Z,15.30
2017-12-22T03:47:43.965Z,15.62
2017-12-22T03:48:43.957Z,15.03
2017-12-22T03:49:43.949Z,14.71
2017-12-22T03:50:43.946Z,15.10
2017-12-22T03:51:43.936Z,15.40
2017-12-22T03:52:43.930Z,15.23
2017-12-22T03:53:43.926Z,15.58
2017-12-22T03:54:43.927Z,15.76
2017-12-22T03:55:43.911Z,17.24
2017-12-22T03:56:43.911Z,17.26
2017-12-22T03:57:43.908Z,15.11
2017-12-22T03:58:43.900Z,15.33
2017-12-22T03:59:43.890Z,15.91
2017-12-22T04:00:43.889Z,17.39
2017-12-22T04:01:44.537Z,14.92
2017-12-22T04:02:43.884Z,15.26
2017-12-22T04:02:55.874Z,0.61
2017-12-22T04:04:43.861Z,15.11
2017-12-22T04:05:43.856Z,14.79
2017-12-22T04:06:43.849Z,14.87
2017-12-22T04:07:43.847Z,14.94
2017-12-22T04:08:43.838Z,14.54
2017-12-22T04:09:43.836Z,15.32
2017-12-22T04:10:43.829Z,15.74
2017-12-22T04:11:43.819Z,15.23
2017-12-22T04:12:43.815Z,14.57
2017-12-22T04:13:43.814Z,14.18
2017-12-22T04:14:43.807Z,14.69
2017-12-22T04:15:44.543Z,14.88
2017-12-22T04:16:43.795Z,14.88
2017-12-22T04:17:43.788Z,15.07
2017-12-22T04:18:43.794Z,14.88
2017-12-22T04:19:43.773Z,14.41
2017-12-22T04:20:43.774Z,14.44
2017-12-22T04:21:43.777Z,14.07
2017-12-22T04:22:43.755Z,14.26
2017-12-22T04:23:43.747Z,14.39
2017-12-22T04:24:43.742Z,14.88
2017-12-22T04:25:43.740Z,15.27
2017-12-22T04:26:43.731Z,15.06
2017-12-22T04:27:43.729Z,15.12
2017-12-22T04:28:43.722Z,14.89
2017-12-22T04:29:43.719Z,14.14
2017-12-22T04:30:43.709Z,14.57
2017-12-22T04:31:43.707Z,14.37
2017-12-22T04:32:43.700Z,14.00
2017-12-22T04:33:43.698Z,14.66
2017-12-22T04:34:43.689Z,14.08
2017-12-22T04:35:43.685Z,14.28
2017-12-22T04:36:43.680Z,14.78
2017-12-22T04:37:43.668Z,14.69
2017-12-22T04:38:43.658Z,14.20
2017-12-22T04:39:43.657Z,14.09
2017-12-22T04:40:43.653Z,14.20
2017-12-22T04:41:43.705Z,14.30
2017-12-22T04:42:43.640Z,14.00
2017-12-22T04:43:43.638Z,13.52
2017-12-22T04:44:43.622Z,14.42
2017-12-22T04:45:43.627Z,13.65
2017-12-22T04:46:43.614Z,13.90
2017-12-22T04:47:44.557Z,13.21
2017-12-22T04:48:43.613Z,12.96
2017-12-22T04:49:43.598Z,13.54
2017-12-22T04:50:43.591Z,14.50
2017-12-22T04:51:43.580Z,13.24
2017-12-22T04:52:43.585Z,13.02
2017-12-22T04:53:43.579Z,14.06
2017-12-22T04:54:43.571Z,13.62
2017-12-22T04:55:43.569Z,13.18
2017-12-22T04:56:43.557Z,13.01
2017-12-22T04:57:43.558Z,13.42
2017-12-22T04:58:43.549Z,13.28
2017-12-22T04:59:43.546Z,13.18
2017-12-22T05:00:43.531Z,12.78
2017-12-22T05:01:43.527Z,12.67
2017-12-22T05:02:43.521Z,12.06
2017-12-22T05:03:43.518Z,12.34
2017-12-22T05:04:43.512Z,12.18
2017-12-22T05:05:43.506Z,12.44
2017-12-22T05:06:43.500Z,12.40
2017-12-22T05:07:43.504Z,12.50
2017-12-22T05:08:43.513Z,12.73
2017-12-22T05:09:43.483Z,12.36
2017-12-22T05:10:43.486Z,12.12
2017-12-22T05:11:43.470Z,12.28
2017-12-22T05:12:43.467Z,12.65
2017-12-22T05:13:43.461Z,12.11
2017-12-22T05:14:43.458Z,12.09
2017-12-22T05:15:43.443Z,12.45
2017-12-22T05:16:43.443Z,11.86
2017-12-22T05:17:43.435Z,11.95
2017-12-22T05:18:43.419Z,11.07
2017-12-22T05:19:43.426Z,11.76
2017-12-22T05:20:43.418Z,11.14
2017-12-22T05:21:43.417Z,11.02
2017-12-22T05:22:43.407Z,10.76
2017-12-22T05:23:43.403Z,11.25
2017-12-22T05:24:43.397Z,11.22
2017-12-22T05:25:43.396Z,11.38
2017-12-22T05:26:43.388Z,11.24
2017-12-22T05:27:43.730Z,11.62
2017-12-22T05:28:43.384Z,11.99
2017-12-22T05:29:43.365Z,11.60
2017-12-22T05:30:43.366Z,10.92
2017-12-22T05:31:43.356Z,11.17
2017-12-22T05:32:43.355Z,11.60
2017-12-22T05:33:43.340Z,11.41
2017-12-22T05:34:43.335Z,11.31
2017-12-22T05:35:43.324Z,10.94
2017-12-22T05:36:43.330Z,11.19
2017-12-22T05:37:43.318Z,10.99
2017-12-22T05:38:43.313Z,10.05
2017-12-22T05:39:43.307Z,10.08
2017-12-22T05:40:43.304Z,10.15
2017-12-22T05:41:43.301Z,10.20
2017-12-22T05:42:43.294Z,10.09
2017-12-22T05:43:43.287Z,10.00
2017-12-22T05:44:43.283Z,10.62
2017-12-22T05:45:43.276Z,10.54
2017-12-22T05:46:43.270Z,10.26
2017-12-22T05:47:43.265Z,9.83
2017-12-22T05:48:43.252Z,10.54
2017-12-22T05:49:43.253Z,9.99
2017-12-22T05:50:43.238Z,9.66
2017-12-22T05:51:44.082Z,9.98
2017-12-22T05:52:43.230Z,9.99
2017-12-22T05:53:43.221Z,9.80
2017-12-22T05:54:43.224Z,9.90
2017-12-22T05:55:43.213Z,9.96
2017-12-22T05:56:43.209Z,9.55
2017-12-22T05:57:43.209Z,10.04
2017-12-22T05:58:43.202Z,9.62
2017-12-22T05:59:43.195Z,9.40
2017-12-22T06:00:43.182Z,9.16
2017-12-22T06:01:43.201Z,9.83
2017-12-22T06:02:43.178Z,10.36
2017-12-22T06:03:43.164Z,10.07
2017-12-22T06:04:43.168Z,10.02
2017-12-22T06:05:43.166Z,10.48
2017-12-22T06:06:43.149Z,10.08
2017-12-22T06:07:43.146Z,9.68
2017-12-22T06:08:43.137Z,10.30
2017-12-22T06:09:43.191Z,10.24
2017-12-22T06:10:43.136Z,10.58
2017-12-22T06:11:43.117Z,9.97
2017-12-22T06:12:44.095Z,10.46
2017-12-22T06:13:43.112Z,10.14
2017-12-22T06:14:43.100Z,10.12
2017-12-22T06:15:43.105Z,10.18
2017-12-22T06:16:43.100Z,10.00
2017-12-22T06:17:43.083Z,10.08
2017-12-22T06:18:43.076Z,10.36
2017-12-22T06:19:43.075Z,10.34
2017-12-22T06:20:43.070Z,9.96
2017-12-22T06:21:43.073Z,9.63
2017-12-22T06:22:43.064Z,10.31
2017-12-22T06:23:43.056Z,10.62
2017-12-22T06:24:43.050Z,10.64
2017-12-22T06:25:43.043Z,10.59
2017-12-22T06:26:43.030Z,11.00
2017-12-22T06:27:43.030Z,10.66
2017-12-22T06:28:43.030Z,10.34
2017-12-22T06:29:43.019Z,9.85
2017-12-22T06:30:43.020Z,9.91
2017-12-22T06:31:43.017Z,9.92
2017-12-22T06:32:43.005Z,10.49
2017-12-22T06:33:43.001Z,10.69
2017-12-22T06:34:43.047Z,11.06
2017-12-22T06:35:42.982Z,10.25
2017-12-22T06:36:42.978Z,10.78
2017-12-22T06:37:42.976Z,10.90
2017-12-22T06:38:42.975Z,10.92
2017-12-22T06:39:42.956Z,10.61
2017-12-22T06:40:42.955Z,10.64
2017-12-22T06:41:42.967Z,9.43
2017-12-22T06:42:42.944Z,10.02
2017-12-22T06:43:43.606Z,10.05
2017-12-22T06:44:42.938Z,9.83
2017-12-22T06:45:42.936Z,9.56
2017-12-22T06:46:42.922Z,9.59
2017-12-22T06:47:42.925Z,9.92
2017-12-22T06:48:43.603Z,9.85
2017-12-22T06:49:42.904Z,10.39
2017-12-22T06:50:42.898Z,10.06
2017-12-22T06:51:42.892Z,9.63
2017-12-22T06:52:43.600Z,9.91
2017-12-22T06:53:42.886Z,9.52
2017-12-22T06:54:42.884Z,9.32
2017-12-22T06:55:42.927Z,9.42
2017-12-22T06:56:43.625Z,9.49
2017-12-22T06:57:43.610Z,9.48
2017-12-22T06:58:42.858Z,8.96
2017-12-22T06:59:42.852Z,8.95
2017-12-22T07:00:42.838Z,9.32
2017-12-22T07:01:42.836Z,9.04
2017-12-22T07:02:42.834Z,10.36
2017-12-22T07:03:42.854Z,9.84
2017-12-22T07:04:42.816Z,9.61
2017-12-22T07:05:42.832Z,9.78
2017-12-22T07:06:42.813Z,9.08
2017-12-22T07:07:42.808Z,8.86
2017-12-22T07:08:42.806Z,9.53
2017-12-22T07:09:42.790Z,9.32
2017-12-22T07:10:42.796Z,9.08
2017-12-22T07:11:42.806Z,8.88
2017-12-22T07:12:42.810Z,9.28
2017-12-22T07:13:42.782Z,9.46
2017-12-22T07:14:42.767Z,9.08
2017-12-22T07:15:42.760Z,10.15
2017-12-22T07:16:44.287Z,10.32
2017-12-22T07:17:42.744Z,10.71
2017-12-22T07:18:42.742Z,9.66
2017-12-22T07:19:42.729Z,9.29
2017-12-22T07:20:42.751Z,9.19
2017-12-22T07:21:42.733Z,9.94
2017-12-22T07:22:42.885Z,9.20
2017-12-22T07:23:42.719Z,9.57
2017-12-22T07:24:42.716Z,8.98
2017-12-22T07:25:42.707Z,9.46
2017-12-22T07:26:42.698Z,9.29
2017-12-22T07:27:42.690Z,9.56
2017-12-22T07:28:43.625Z,9.68
2017-12-22T07:29:42.688Z,9.03
2017-12-22T07:30:42.678Z,8.85
2017-12-22T07:31:42.677Z,8.62
2017-12-22T07:32:42.663Z,9.29
2017-12-22T07:33:42.656Z,9.08
2017-12-22T07:34:42.647Z,8.76
2017-12-22T07:35:42.634Z,8.86
2017-12-22T07:36:42.656Z,8.77
2017-12-22T07:37:42.635Z,9.04
2017-12-22T07:38:42.632Z,9.25
2017-12-22T07:39:42.623Z,8.81
2017-12-22T07:40:42.619Z,8.70
2017-12-22T07:41:42.614Z,9.04
2017-12-22T07:42:42.609Z,8.74
2017-12-22T07:42:54.606Z,0.34
2017-12-22T07:44:42.626Z,8.73
2017-12-22T07:45:42.585Z,8.97
2017-12-22T07:46:42.582Z,9.03
2017-12-22T07:47:42.579Z,9.16
2017-12-22T07:48:42.576Z,8.70
2017-12-22T07:49:42.569Z,8.66
2017-12-22T07:50:42.554Z,7.79
2017-12-22T07:51:42.554Z,7.77
2017-12-22T07:52:42.573Z,7.98
2017-12-22T07:53:42.541Z,7.96
2017-12-22T07:54:42.541Z,8.37
2017-12-22T07:55:42.534Z,8.11
2017-12-22T07:56:42.530Z,8.63
2017-12-22T07:57:42.521Z,8.24
2017-12-22T07:58:42.510Z,8.58
2017-12-22T07:59:42.508Z,8.57
2017-12-22T08:00:42.499Z,8.38
2017-12-22T08:01:42.495Z,7.88
2017-12-22T08:02:42.477Z,8.27
2017-12-22T08:03:42.482Z,8.16
2017-12-22T08:04:42.481Z,7.94
2017-12-22T08:05:42.476Z,8.40
2017-12-22T08:06:42.465Z,9.07
2017-12-22T08:07:42.462Z,9.02
2017-12-22T08:08:42.458Z,8.68
2017-12-22T08:09:42.452Z,8.75
2017-12-22T08:10:42.447Z,8.46
2017-12-22T08:11:42.442Z,8.30
2017-12-22T08:12:42.451Z,8.26
2017-12-22T08:13:42.429Z,8.21
2017-12-22T08:14:42.424Z,8.32
2017-12-22T08:15:42.419Z,8.16
2017-12-22T08:16:42.409Z,8.63
2017-12-22T08:17:42.408Z,8.53
2017-12-22T08:18:42.400Z,8.34
2017-12-22T08:19:42.403Z,8.67
2017-12-22T08:20:42.387Z,8.38
2017-12-22T08:21:42.400Z,8.61
2017-12-22T08:22:42.379Z,8.91
2017-12-22T08:23:42.380Z,8.73
2017-12-22T08:24:42.370Z,8.86
2017-12-22T08:25:42.370Z,9.43
2017-12-22T08:26:42.355Z,9.34
2017-12-22T08:27:42.367Z,9.22
2017-12-22T08:28:42.349Z,9.03
2017-12-22T08:29:42.335Z,8.52
2017-12-22T08:30:42.334Z,9.11
2017-12-22T08:31:42.326Z,9.07
2017-12-22T08:32:42.322Z,8.99
2017-12-22T08:33:42.318Z,8.87
2017-12-22T08:34:42.309Z,9.23
2017-12-22T08:35:42.312Z,9.10
2017-12-22T08:36:42.306Z,8.73
2017-12-22T08:37:42.295Z,8.60
2017-12-22T08:38:42.293Z,10.09
2017-12-22T08:39:42.285Z,11.07
2017-12-22T08:40:42.280Z,9.12
2017-12-22T08:41:42.276Z,8.87
2017-12-22T08:42:42.271Z,8.80
2017-12-22T08:43:42.262Z,8.84
2017-12-22T08:44:42.260Z,10.06
2017-12-22T08:45:42.249Z,8.55
2017-12-22T08:46:42.248Z,8.33
2017-12-22T08:47:42.237Z,8.51
2017-12-22T08:48:42.238Z,9.35
2017-12-22T08:49:42.251Z,8.45
2017-12-22T08:50:42.223Z,8.59
2017-12-22T08:51:42.241Z,8.44
2017-12-22T08:52:42.225Z,8.76
2017-12-22T08:53:42.219Z,8.61
2017-12-22T08:54:42.194Z,8.18
2017-12-22T08:55:42.194Z,8.06
2017-12-22T08:56:42.192Z,8.09
2017-12-22T08:57:42.192Z,8.31
2017-12-22T08:58:42.195Z,8.45
2017-12-22T08:59:42.166Z,8.65
2017-12-22T09:00:42.189Z,8.77
2017-12-22T09:01:42.218Z,9.55
2017-12-22T09:02:42.197Z,9.55
2017-12-22T09:03:42.160Z,9.77
2017-12-22T09:04:42.154Z,9.60
2017-12-22T09:05:42.143Z,9.16
2017-12-22T09:06:42.133Z,9.08
2017-12-22T09:07:42.161Z,9.72
2017-12-22T09:08:42.129Z,9.84
2017-12-22T09:09:42.124Z,9.61
2017-12-22T09:10:42.129Z,9.74
2017-12-22T09:11:42.108Z,11.11
2017-12-22T09:12:42.102Z,10.88
2017-12-22T09:13:42.096Z,9.94
2017-12-22T09:14:42.085Z,11.29
2017-12-22T09:15:42.089Z,11.23
2017-12-22T09:16:42.095Z,10.52
2017-12-22T09:17:42.092Z,10.49
2017-12-22T09:18:42.090Z,10.73
2017-12-22T09:19:42.100Z,10.17
2017-12-22T09:20:42.144Z,10.50
2017-12-22T09:21:42.071Z,10.16
2017-12-22T09:22:42.053Z,10.10
2017-12-22T09:23:42.064Z,10.69
2017-12-22T09:24:42.034Z,10.71
2017-12-22T09:25:42.035Z,11.35
2017-12-22T09:26:42.029Z,11.32
2017-12-22T09:27:42.028Z,10.87
2017-12-22T09:28:42.019Z,11.26
2017-12-22T09:28:54.013Z,0.45
2017-12-22T09:30:42.007Z,11.30
2017-12-22T09:31:42.003Z,11.50
2017-12-22T09:32:41.992Z,11.59
2017-12-22T09:33:41.995Z,11.63
2017-12-22T09:34:41.991Z,11.87
2017-12-22T09:35:41.989Z,11.92
2017-12-22T09:36:41.986Z,11.88
2017-12-22T09:37:41.976Z,12.35
2017-12-22T09:38:41.969Z,13.05
2017-12-22T09:39:41.964Z,12.43
2017-12-22T09:40:41.964Z,12.70
2017-12-22T09:41:41.957Z,12.25
2017-12-22T09:42:41.955Z,11.72
2017-12-22T09:43:41.938Z,12.03
2017-12-22T09:44:41.935Z,12.24
2017-12-22T09:45:41.938Z,12.50
2017-12-22T09:46:41.924Z,11.99
2017-12-22T09:47:41.913Z,12.58
2017-12-22T09:48:41.919Z,12.27
2017-12-22T09:49:41.909Z,12.80
2017-12-22T09:50:41.904Z,12.95
2017-12-22T09:51:41.901Z,13.26
2017-12-22T09:52:42.599Z,13.04
2017-12-22T09:53:41.897Z,13.18
2017-12-22T09:54:42.189Z,12.26
2017-12-22T09:55:41.879Z,12.69
2017-12-22T09:56:41.864Z,12.11
2017-12-22T09:57:41.863Z,11.68
2017-12-22T09:58:41.864Z,11.30
2017-12-22T09:59:43.269Z,11.74
2017-12-22T10:00:41.849Z,11.18
2017-12-22T10:01:41.846Z,11.00
2017-12-22T10:02:41.836Z,10.68
2017-12-22T10:03:41.836Z,10.42
2017-12-22T10:04:41.836Z,10.65
2017-12-22T10:05:41.822Z,11.54
2017-12-22T10:06:41.817Z,11.13
2017-12-22T10:07:41.817Z,11.00
2017-12-22T10:08:41.814Z,10.66
2017-12-22T10:09:41.811Z,10.62
2017-12-22T10:10:41.806Z,11.12
2017-12-22T10:11:41.798Z,11.49
2017-12-22T10:12:41.788Z,11.10
2017-12-22T10:13:42.382Z,10.68
2017-12-22T10:14:41.786Z,11.09
2017-12-22T10:15:43.968Z,10.74
2017-12-22T10:16:41.774Z,10.49
2017-12-22T10:17:43.375Z,10.56
2017-12-22T10:18:41.815Z,10.42
2017-12-22T10:19:41.753Z,10.52
2017-12-22T10:20:41.754Z,10.57
2017-12-22T10:21:41.757Z,10.51
2017-12-22T10:22:41.739Z,10.72
2017-12-22T10:23:41.734Z,10.90
2017-12-22T10:24:41.734Z,10.31
2017-12-22T10:25:41.726Z,10.94
2017-12-22T10:26:42.265Z,9.88
2017-12-22T10:27:41.760Z,10.07
2017-12-22T10:28:43.883Z,10.00
2017-12-22T10:29:41.727Z,9.51
2017-12-22T10:30:41.698Z,9.10
2017-12-22T10:31:41.692Z,9.28
2017-12-22T10:32:42.145Z,9.72
2017-12-22T10:33:41.684Z,9.74
2017-12-22T10:34:41.676Z,9.23
2017-12-22T10:35:41.672Z,8.96
2017-12-22T10:36:42.232Z,9.48
2017-12-22T10:37:42.030Z,9.68
2017-12-22T10:38:41.840Z,10.36
2017-12-22T10:39:41.666Z,10.04
2017-12-22T10:40:41.652Z,9.64
2017-12-22T10:41:41.644Z,9.81
2017-12-22T10:42:42.202Z,9.87
2017-12-22T10:43:41.855Z,9.93
2017-12-22T10:44:41.623Z,9.72
2017-12-22T10:45:41.616Z,9.60
2017-12-22T10:46:41.616Z,9.88
2017-12-22T10:47:41.615Z,10.02
2017-12-22T10:48:41.609Z,10.39
2017-12-22T10:49:41.593Z,10.40
2017-12-22T10:50:41.586Z,10.20
2017-12-22T10:51:42.431Z,10.47
2017-12-22T10:52:41.618Z,10.81
2017-12-22T10:53:43.816Z,11.66
2017-12-22T10:54:41.642Z,11.15
2017-12-22T10:55:41.889Z,11.97
2017-12-22T10:56:41.563Z,11.64
2017-12-22T10:57:41.571Z,11.90
2017-12-22T10:58:42.213Z,12.05
2017-12-22T10:59:41.618Z,12.64
2017-12-22T11:00:41.539Z,13.20
2017-12-22T11:01:41.534Z,13.35
2017-12-22T11:02:41.530Z,14.26
2017-12-22T11:03:41.523Z,13.80
2017-12-22T11:04:41.527Z,13.99
2017-12-22T11:05:41.582Z,15.11
2017-12-22T11:06:41.511Z,14.02
2017-12-22T11:07:41.499Z,14.27
2017-12-22T11:08:41.503Z,13.99
2017-12-22T11:09:41.516Z,14.59
2017-12-22T11:10:41.485Z,15.81
2017-12-22T11:11:41.481Z,15.18
2017-12-22T11:12:41.484Z,15.70
2017-12-22T11:13:41.469Z,15.79
2017-12-22T11:14:41.466Z,16.79
2017-12-22T11:15:41.453Z,16.01
2017-12-22T11:16:41.458Z,15.94
2017-12-22T11:17:41.470Z,16.56
2017-12-22T11:18:41.444Z,16.18
2017-12-22T11:19:41.445Z,16.73
2017-12-22T11:20:41.438Z,16.38
2017-12-22T11:21:41.443Z,16.76
2017-12-22T11:22:41.447Z,16.02
2017-12-22T11:23:41.420Z,16.56
2017-12-22T11:24:41.421Z,16.48
2017-12-22T11:25:41.432Z,17.14
2017-12-22T11:26:41.400Z,16.93
2017-12-22T11:27:41.384Z,17.00
2017-12-22T11:28:41.391Z,16.91
2017-12-22T11:29:41.386Z,16.46
2017-12-22T11:30:41.377Z,18.28
2017-12-22T11:31:41.369Z,17.86
2017-12-22T11:32:41.369Z,17.78
2017-12-22T11:33:41.370Z,18.54
2017-12-22T11:34:41.359Z,19.29
2017-12-22T11:35:41.357Z,19.28
2017-12-22T11:36:41.343Z,19.58
2017-12-22T11:37:41.341Z,19.06
2017-12-22T11:38:41.331Z,19.29
2017-12-22T11:39:41.334Z,18.27
2017-12-22T11:40:41.323Z,19.16
2017-12-22T11:41:41.322Z,18.36
2017-12-22T11:42:41.313Z,17.44
2017-12-22T11:43:41.306Z,17.60
2017-12-22T11:44:41.301Z,17.26
2017-12-22T11:45:41.298Z,19.41
2017-12-22T11:46:42.240Z,19.31
2017-12-22T11:47:41.286Z,19.04
2017-12-22T11:48:41.284Z,19.16
2017-12-22T11:49:41.282Z,19.31
2017-12-22T11:50:41.276Z,19.85
2017-12-22T11:51:41.286Z,19.71
2017-12-22T11:52:41.264Z,21.02
2017-12-22T11:53:41.253Z,19.90
2017-12-22T11:54:41.250Z,19.50
2017-12-22T11:55:41.243Z,19.08
2017-12-22T11:56:41.236Z,19.13
2017-12-22T11:57:41.235Z,18.42
2017-12-22T11:58:41.228Z,19.18
2017-12-22T11:59:41.221Z,18.11
2017-12-22T12:00:41.217Z,18.95
2017-12-22T12:01:41.222Z,18.55
2017-12-22T12:02:41.204Z,19.45
2017-12-22T12:03:41.214Z,19.08
2017-12-22T12:04:41.198Z,19.73
2017-12-22T12:05:41.194Z,19.77
2017-12-22T12:06:41.197Z,19.24
2017-12-22T12:07:41.196Z,19.46
2017-12-22T12:08:41.175Z,19.54
2017-12-22T12:09:41.168Z,19.76
2017-12-22T12:10:41.160Z,19.42
2017-12-22T12:11:41.158Z,19.48
2017-12-22T12:12:41.156Z,19.19
2017-12-22T12:13:41.151Z,19.84
2017-12-22T12:14:41.146Z,19.11
2017-12-22T12:15:41.162Z,19.19
2017-12-22T12:16:41.139Z,19.03
2017-12-22T12:17:41.120Z,19.66
2017-12-22T12:18:41.116Z,20.05
2017-12-22T12:19:41.113Z,21.05
2017-12-22T12:20:41.113Z,20.72
2017-12-22T12:21:41.096Z,19.81
2017-12-22T12:22:41.097Z,19.50
2017-12-22T12:23:41.093Z,19.65
2017-12-22T12:24:41.087Z,20.15
2017-12-22T12:25:41.089Z,19.70
2017-12-22T12:26:41.077Z,19.87
2017-12-22T12:27:41.074Z,18.09
2017-12-22T12:28:41.068Z,18.34
2017-12-22T12:29:41.064Z,18.84
2017-12-22T12:30:41.074Z,18.57
2017-12-22T12:31:41.058Z,17.87
2017-12-22T12:32:41.047Z,18.20
2017-12-22T12:33:41.047Z,18.24
2017-12-22T12:34:41.034Z,17.97
2017-12-22T12:35:41.031Z,18.25
2017-12-22T12:36:41.025Z,18.30
2017-12-22T12:37:41.017Z,17.84
2017-12-22T12:38:41.015Z,18.84
2017-12-22T12:39:41.012Z,18.62
2017-12-22T12:40:41.021Z,18.93
2017-12-22T12:41:40.999Z,19.02
2017-12-22T12:42:40.992Z,17.96
2017-12-22T12:43:40.994Z,18.16
2017-12-22T12:44:40.989Z,17.69
2017-12-22T12:45:40.981Z,18.05
2017-12-22T12:46:40.971Z,17.35
2017-12-22T12:47:40.968Z,17.52
2017-12-22T12:48:40.962Z,17.23
2017-12-22T12:49:40.970Z,17.27
2017-12-22T12:50:40.958Z,16.70
2017-12-22T12:51:40.950Z,15.84
2017-12-22T12:52:40.940Z,15.53
2017-12-22T12:53:40.935Z,15.73
2017-12-22T12:54:40.931Z,15.68
2017-12-22T12:55:40.921Z,14.88
2017-12-22T12:56:40.940Z,15.07
2017-12-22T12:57:40.928Z,15.84
2017-12-22T12:58:40.909Z,16.02